Time;durP1;ratioP1;P1;durP2;ratioP2;P2;SDS_P1;SDS_P2;PMS_P1;PMS_P2;Temp;Humidity;BMP_temperature;BMP_pressure;BME280_temperature;BME280_humidity;BME280_pressure;Samples;Min_cycle;Max_cycle;Signal;HPM_P1;HPM_P2
2023/12/07 00:01:10;;;;;;;0.20;0.10;;;;;;;;;;4944653;28;20492;-82
2023/12/07 00:03:36;;;;;;;0.20;0.20;;;;;;;;;;4953541;28;20050;-82
2023/12/07 00:06:02;;;;;;;0.20;0.10;;;;;;;;;;4945503;29;20035;-82
2023/12/07 00:08:28;;;;;;;0.20;0.10;;;;;;;;;;4957992;28;20043;-81
2023/12/07 00:10:54;;;;;;;0.20;0.10;;;;;;;;;;4937031;28;20035;-83
2023/12/07 00:13:20;;;;;;;0.20;0.10;;;;;;;;;;4957930;28;20460;-82
2023/12/07 00:15:47;;;;;;;0.20;0.10;;;;;;;;;;4942332;29;20050;-82
2023/12/07 00:18:13;;;;;;;0.20;0.08;;;;;;;;;;4943032;29;20046;-82
2023/12/07 00:20:39;;;;;;;0.20;0.05;;;;;;;;;;4958585;28;20047;-82
2023/12/07 00:23:05;;;;;;;0.20;0.10;;;;;;;;;;4941904;28;20043;-83
2023/12/07 00:25:31;;;;;;;0.20;0.10;;;;;;;;;;4959226;28;20054;-82
2023/12/07 00:27:57;;;;;;;0.20;0.00;;;;;;;;;;4944364;28;20048;-82
2023/12/07 00:30:23;;;;;;;0.20;0.00;;;;;;;;;;4941568;28;20035;-82
2023/12/07 00:32:49;;;;;;;0.20;0.10;;;;;;;;;;4942672;28;20043;-82
2023/12/07 00:35:16;;;;;;;0.45;0.22;;;;;;;;;;4926979;29;20039;-83
2023/12/07 00:37:42;;;;;;;0.20;0.10;;;;;;;;;;4926750;29;20051;-82
2023/12/07 00:40:08;;;;;;;0.20;0.10;;;;;;;;;;4924248;28;20043;-83
2023/12/07 00:42:34;;;;;;;0.20;0.00;;;;;;;;;;4942001;28;20035;-82
2023/12/07 00:45:00;;;;;;;0.20;0.10;;;;;;;;;;4958639;28;20394;-82
2023/12/07 00:47:26;;;;;;;0.20;0.10;;;;;;;;;;4957667;28;20528;-82
2023/12/07 00:49:52;;;;;;;0.20;0.10;;;;;;;;;;4944045;28;20047;-82
2023/12/07 00:52:18;;;;;;;0.20;0.10;;;;;;;;;;4942575;28;20126;-82
2023/12/07 00:54:44;;;;;;;0.20;0.10;;;;;;;;;;4961367;28;20150;-82
2023/12/07 00:57:10;;;;;;;0.20;0.10;;;;;;;;;;4930881;29;20039;-83
2023/12/07 00:59:37;;;;;;;0.20;0.10;;;;;;;;;;4971627;23;20043;-84
2023/12/07 01:02:07;;;;;;;0.20;0.00;;;;;;;;;;4924688;28;20082;-84
2023/12/07 01:04:33;;;;;;;0.20;0.10;;;;;;;;;;4944910;28;20053;-84
2023/12/07 01:06:59;;;;;;;0.38;0.30;;;;;;;;;;4941744;28;20343;-84
2023/12/07 01:09:26;;;;;;;0.20;0.00;;;;;;;;;;4935191;28;20034;-84
2023/12/07 01:11:52;;;;;;;0.20;0.00;;;;;;;;;;4957950;28;20131;-82
2023/12/07 01:14:18;;;;;;;0.20;0.03;;;;;;;;;;4971904;28;20035;-82
2023/12/07 01:16:46;;;;;;;0.20;0.10;;;;;;;;;;4958622;28;20097;-83
2023/12/07 01:19:14;;;;;;;0.20;0.10;;;;;;;;;;4945825;28;20747;-84
2023/12/07 01:21:41;;;;;;;0.20;0.10;;;;;;;;;;4968022;28;20046;-84
2023/12/07 01:24:07;;;;;;;0.20;0.10;;;;;;;;;;4960427;28;20047;-84
2023/12/07 01:26:33;;;;;;;0.20;0.10;;;;;;;;;;4932271;28;20086;-84
2023/12/07 01:28:59;;;;;;;0.20;0.10;;;;;;;;;;4966366;28;20047;-83
2023/12/07 01:31:25;;;;;;;0.20;0.20;;;;;;;;;;4967267;28;20089;-84
2023/12/07 01:33:51;;;;;;;0.20;0.10;;;;;;;;;;4939561;28;20054;-84
2023/12/07 01:36:18;;;;;;;0.20;0.10;;;;;;;;;;4967850;28;20070;-85
2023/12/07 01:38:44;;;;;;;0.20;0.10;;;;;;;;;;4965468;28;20031;-84
2023/12/07 01:41:10;;;;;;;0.20;0.10;;;;;;;;;;4961458;28;20503;-83
2023/12/07 01:43:36;;;;;;;0.20;0.10;;;;;;;;;;4967512;28;20121;-84
2023/12/07 01:46:02;;;;;;;0.20;0.00;;;;;;;;;;4945277;28;20162;-83
2023/12/07 01:48:29;;;;;;;0.20;0.10;;;;;;;;;;4962804;28;20073;-85
2023/12/07 01:50:56;;;;;;;0.50;0.25;;;;;;;;;;4961263;28;20035;-84
2023/12/07 01:53:23;;;;;;;0.20;0.10;;;;;;;;;;4966251;28;20065;-85
2023/12/07 01:55:49;;;;;;;0.20;0.10;;;;;;;;;;4979359;28;20049;-82
2023/12/07 01:58:17;;;;;;;0.20;0.10;;;;;;;;;;4979960;28;20035;-82
2023/12/07 02:00:43;;;;;;;0.20;0.10;;;;;;;;;;4932203;28;20038;-84
2023/12/07 02:03:09;;;;;;;0.20;0.10;;;;;;;;;;4928364;28;20047;-84
2023/12/07 02:05:36;;;;;;;0.20;0.10;;;;;;;;;;4979591;28;20410;-84
2023/12/07 02:08:02;;;;;;;0.20;0.10;;;;;;;;;;4943227;28;20125;-84
2023/12/07 02:10:28;;;;;;;0.20;0.10;;;;;;;;;;4963328;28;20101;-84
2023/12/07 02:12:54;;;;;;;0.20;0.10;;;;;;;;;;4979122;28;20552;-84
2023/12/07 02:15:21;;;;;;;0.20;0.10;;;;;;;;;;4974254;28;20561;-84
2023/12/07 02:17:58;;;;;;;0.20;0.10;;;;;;;;;;4978324;28;20039;-83
2023/12/07 02:20:45;;;;;;;0.20;0.10;;;;;;;;;;4944804;28;20227;-84
2023/12/07 02:23:13;;;;;;;0.20;0.10;;;;;;;;;;4948768;28;20284;-83
2023/12/07 02:25:51;;;;;;;0.20;0.10;;;;;;;;;;4960312;28;20059;-84
2023/12/07 02:28:17;;;;;;;0.20;0.10;;;;;;;;;;4945043;28;20042;-84
2023/12/07 02:30:43;;;;;;;0.20;0.10;;;;;;;;;;4935842;28;20614;-84
2023/12/07 02:33:09;;;;;;;0.22;0.22;;;;;;;;;;4944334;28;20046;-83
2023/12/07 02:35:36;;;;;;;0.20;0.10;;;;;;;;;;4975398;28;20031;-84
2023/12/07 02:38:03;;;;;;;1.60;0.22;;;;;;;;;;4976844;28;20047;-86
2023/12/07 02:40:29;;;;;;;0.20;0.10;;;;;;;;;;4942559;28;20062;-85
2023/12/07 02:42:55;;;;;;;0.20;0.10;;;;;;;;;;4938333;28;20043;-86
2023/12/07 02:45:21;;;;;;;0.20;0.10;;;;;;;;;;4956361;28;20112;-85
2023/12/07 02:47:47;;;;;;;0.20;0.10;;;;;;;;;;4974061;28;20047;-85
2023/12/07 02:50:14;;;;;;;0.20;0.10;;;;;;;;;;4928410;28;20046;-83
2023/12/07 02:52:40;;;;;;;0.20;0.10;;;;;;;;;;4929100;28;20066;-84
2023/12/07 02:55:07;;;;;;;0.20;0.00;;;;;;;;;;4958945;28;20078;-84
2023/12/07 02:57:33;;;;;;;0.20;0.10;;;;;;;;;;4942978;28;20411;-84
2023/12/07 02:59:59;;;;;;;0.20;0.10;;;;;;;;;;4946013;28;20049;-84
2023/12/07 03:02:26;;;;;;;0.20;0.10;;;;;;;;;;4976634;28;20043;-83
2023/12/07 03:04:52;;;;;;;0.30;0.25;;;;;;;;;;4966710;28;20047;-84
2023/12/07 03:07:18;;;;;;;0.20;0.10;;;;;;;;;;4962245;28;20054;-84
2023/12/07 03:09:44;;;;;;;0.32;0.32;;;;;;;;;;4959282;28;20082;-84
2023/12/07 03:12:10;;;;;;;0.30;0.20;;;;;;;;;;4977881;28;20030;-81
2023/12/07 03:14:36;;;;;;;0.20;0.10;;;;;;;;;;4932186;28;20038;-84
2023/12/07 03:17:02;;;;;;;0.20;0.10;;;;;;;;;;4959576;28;20054;-83
2023/12/07 03:19:28;;;;;;;0.20;0.10;;;;;;;;;;4937887;28;20093;-83
2023/12/07 03:21:54;;;;;;;0.20;0.13;;;;;;;;;;4970285;28;20122;-84
2023/12/07 03:24:20;;;;;;;0.20;0.10;;;;;;;;;;4980657;28;20525;-83
2023/12/07 03:26:46;;;;;;;0.20;0.20;;;;;;;;;;4969449;28;20047;-82
2023/12/07 03:29:12;;;;;;;0.20;0.10;;;;;;;;;;4970858;28;20066;-83
2023/12/07 03:31:39;;;;;;;0.20;0.10;;;;;;;;;;4961885;28;20540;-84
2023/12/07 03:34:05;;;;;;;0.20;0.00;;;;;;;;;;4952993;28;20035;-82
2023/12/07 03:36:31;;;;;;;0.20;0.10;;;;;;;;;;4939798;28;20488;-80
2023/12/07 03:38:57;;;;;;;0.20;0.03;;;;;;;;;;4938013;28;20046;-82
2023/12/07 03:41:23;;;;;;;0.20;0.10;;;;;;;;;;4951144;28;20047;-84
2023/12/07 03:43:49;;;;;;;0.20;0.05;;;;;;;;;;4965911;28;20518;-84
2023/12/07 03:46:15;;;;;;;0.20;0.10;;;;;;;;;;4962649;28;20118;-83
2023/12/07 03:48:42;;;;;;;0.20;0.10;;;;;;;;;;4951853;28;20039;-84
2023/12/07 03:51:08;;;;;;;0.20;0.10;;;;;;;;;;4933892;28;21248;-84
2023/12/07 03:53:34;;;;;;;0.20;0.10;;;;;;;;;;4935691;28;20097;-84
2023/12/07 03:56:00;;;;;;;0.20;0.15;;;;;;;;;;4975130;28;20042;-82
2023/12/07 03:58:26;;;;;;;0.20;0.10;;;;;;;;;;4968472;28;20043;-83
2023/12/07 04:00:52;;;;;;;0.20;0.10;;;;;;;;;;4949121;28;20070;-82
2023/12/07 04:03:18;;;;;;;0.20;0.10;;;;;;;;;;4962955;28;20047;-83
2023/12/07 04:05:44;;;;;;;0.20;0.10;;;;;;;;;;4965579;28;20049;-84
2023/12/07 04:08:10;;;;;;;0.20;0.10;;;;;;;;;;4948286;28;20483;-84
2023/12/07 04:10:36;;;;;;;0.20;0.10;;;;;;;;;;4961585;28;20094;-83
2023/12/07 04:13:02;;;;;;;0.20;0.10;;;;;;;;;;4970868;28;20439;-84
2023/12/07 04:15:28;;;;;;;1.20;0.25;;;;;;;;;;4933721;28;20041;-83
2023/12/07 04:17:54;;;;;;;0.20;0.10;;;;;;;;;;4957780;28;20121;-79
2023/12/07 04:20:20;;;;;;;0.20;0.10;;;;;;;;;;4938880;28;20035;-82
2023/12/07 04:22:46;;;;;;;0.22;0.22;;;;;;;;;;4980328;28;20075;-83
2023/12/07 04:25:12;;;;;;;0.20;0.10;;;;;;;;;;4967001;28;20035;-82
2023/12/07 04:27:38;;;;;;;0.20;0.10;;;;;;;;;;4977347;28;20043;-83
2023/12/07 04:30:05;;;;;;;0.20;0.10;;;;;;;;;;4950501;28;20535;-83
2023/12/07 04:32:31;;;;;;;0.20;0.10;;;;;;;;;;4962768;28;20039;-87
2023/12/07 04:34:57;;;;;;;0.20;0.10;;;;;;;;;;4957528;28;20082;-81
2023/12/07 04:37:23;;;;;;;0.20;0.10;;;;;;;;;;4966308;28;20865;-83
2023/12/07 04:39:49;;;;;;;0.20;0.05;;;;;;;;;;4959017;28;20035;-83
2023/12/07 04:42:15;;;;;;;0.20;0.10;;;;;;;;;;4935504;28;20038;-82
2023/12/07 04:44:41;;;;;;;0.20;0.10;;;;;;;;;;4938292;28;20054;-82
2023/12/07 04:47:07;;;;;;;0.20;0.10;;;;;;;;;;4938542;28;20047;-82
2023/12/07 04:49:33;;;;;;;0.20;0.10;;;;;;;;;;4939666;28;20047;-83
2023/12/07 04:51:59;;;;;;;0.20;0.10;;;;;;;;;;4951350;28;20047;-83
2023/12/07 04:54:27;;;;;;;0.20;0.10;;;;;;;;;;4932519;28;20554;-84
2023/12/07 04:56:54;;;;;;;0.38;0.38;;;;;;;;;;4967468;28;20039;-85
2023/12/07 04:59:20;;;;;;;0.20;0.10;;;;;;;;;;4973001;28;20046;-83
2023/12/07 05:01:47;;;;;;;0.20;0.10;;;;;;;;;;4949711;28;20035;-83
2023/12/07 05:04:13;;;;;;;1.38;0.35;;;;;;;;;;4979300;28;20050;-85
2023/12/07 05:06:39;;;;;;;0.30;0.30;;;;;;;;;;4965184;28;20038;-84
2023/12/07 05:09:08;;;;;;;0.20;0.10;;;;;;;;;;4932511;28;20041;-84
2023/12/07 05:11:35;;;;;;;0.20;0.10;;;;;;;;;;4952958;28;20057;-86
2023/12/07 05:14:03;;;;;;;0.20;0.00;;;;;;;;;;4963825;28;20046;-84
2023/12/07 05:16:29;;;;;;;0.20;0.10;;;;;;;;;;4964194;28;20455;-85
2023/12/07 05:18:55;;;;;;;0.20;0.10;;;;;;;;;;4965255;28;20038;-83
2023/12/07 05:21:21;;;;;;;0.20;0.00;;;;;;;;;;4952404;28;20042;-84
2023/12/07 05:23:48;;;;;;;0.20;0.05;;;;;;;;;;4977870;28;20058;-83
2023/12/07 05:26:14;;;;;;;0.20;0.10;;;;;;;;;;4974360;28;20126;-85
2023/12/07 05:28:40;;;;;;;0.65;0.20;;;;;;;;;;4955875;28;20101;-83
2023/12/07 05:31:06;;;;;;;0.20;0.10;;;;;;;;;;4954435;28;20058;-86
2023/12/07 05:33:33;;;;;;;0.20;0.10;;;;;;;;;;4962895;28;20048;-84
2023/12/07 05:36:00;;;;;;;0.20;0.10;;;;;;;;;;4944015;28;20051;-84
2023/12/07 05:38:26;;;;;;;0.20;0.10;;;;;;;;;;4946315;28;20385;-85
2023/12/07 05:40:52;;;;;;;0.47;0.47;;;;;;;;;;4941576;28;20046;-82
2023/12/07 05:43:18;;;;;;;0.20;0.10;;;;;;;;;;4956138;28;20044;-85
2023/12/07 05:45:44;;;;;;;0.20;0.10;;;;;;;;;;4935778;28;20045;-85
2023/12/07 05:48:11;;;;;;;0.20;0.10;;;;;;;;;;4979413;28;20042;-87
2023/12/07 05:50:39;;;;;;;0.20;0.08;;;;;;;;;;4932525;28;20051;-85
2023/12/07 05:53:05;;;;;;;0.20;0.05;;;;;;;;;;4973984;28;20069;-85
2023/12/07 05:55:32;;;;;;;0.20;0.10;;;;;;;;;;4960122;28;20050;-83
2023/12/07 05:57:58;;;;;;;0.20;0.10;;;;;;;;;;4933802;28;20058;-85
2023/12/07 06:00:25;;;;;;;0.20;0.00;;;;;;;;;;4965305;28;20752;-83
2023/12/07 06:02:51;;;;;;;0.20;0.13;;;;;;;;;;4978494;28;20053;-84
2023/12/07 06:05:17;;;;;;;0.20;0.10;;;;;;;;;;4937869;28;20511;-82
2023/12/07 06:07:43;;;;;;;0.20;0.10;;;;;;;;;;4932160;28;20050;-84
2023/12/07 06:10:10;;;;;;;0.20;0.10;;;;;;;;;;4958740;28;20047;-83
2023/12/07 06:12:36;;;;;;;0.68;0.68;;;;;;;;;;4950880;28;20038;-83
2023/12/07 06:15:02;;;;;;;0.20;0.00;;;;;;;;;;4964459;28;20079;-84
2023/12/07 06:17:28;;;;;;;0.20;0.10;;;;;;;;;;4952129;28;20031;-84
2023/12/07 06:19:54;;;;;;;0.20;0.10;;;;;;;;;;4949260;28;20035;-84
2023/12/07 06:22:21;;;;;;;0.20;0.10;;;;;;;;;;4965338;28;20669;-84
2023/12/07 06:24:47;;;;;;;0.20;0.10;;;;;;;;;;4945546;28;20042;-83
2023/12/07 06:27:13;;;;;;;0.20;0.10;;;;;;;;;;4962571;28;20038;-84
2023/12/07 06:29:39;;;;;;;0.20;0.10;;;;;;;;;;4977701;28;20058;-84
2023/12/07 06:32:06;;;;;;;0.20;0.10;;;;;;;;;;4946497;28;20050;-84
2023/12/07 06:34:32;;;;;;;0.20;0.10;;;;;;;;;;4983618;28;20047;-82
2023/12/07 06:36:58;;;;;;;0.20;0.10;;;;;;;;;;4970024;28;20090;-82
2023/12/07 06:39:24;;;;;;;0.20;0.10;;;;;;;;;;4967724;28;20566;-82
2023/12/07 06:41:50;;;;;;;1.40;1.30;;;;;;;;;;4933645;28;20065;-80
2023/12/07 06:44:16;;;;;;;1.10;0.63;;;;;;;;;;4961154;28;20050;-82
2023/12/07 06:46:42;;;;;;;0.20;0.10;;;;;;;;;;4949767;28;20120;-84
2023/12/07 06:49:08;;;;;;;0.20;0.10;;;;;;;;;;4969757;28;20491;-83
2023/12/07 06:51:34;;;;;;;0.52;0.40;;;;;;;;;;4981522;28;20043;-86
2023/12/07 06:54:00;;;;;;;0.20;0.10;;;;;;;;;;4964053;28;20069;-84
2023/12/07 06:56:26;;;;;;;0.20;0.10;;;;;;;;;;4938392;28;20105;-83
2023/12/07 06:58:52;;;;;;;0.68;0.28;;;;;;;;;;4982269;28;20045;-82
2023/12/07 07:01:18;;;;;;;0.20;0.20;;;;;;;;;;4980345;23;20498;-82
2023/12/07 07:03:44;;;;;;;0.20;0.10;;;;;;;;;;4960611;28;20054;-83
2023/12/07 07:06:10;;;;;;;0.20;0.10;;;;;;;;;;4991145;28;20050;-83
2023/12/07 07:08:36;;;;;;;0.20;0.08;;;;;;;;;;4964118;28;20045;-82
2023/12/07 07:11:03;;;;;;;0.20;0.10;;;;;;;;;;4983413;28;20278;-82
2023/12/07 07:13:29;;;;;;;0.20;0.10;;;;;;;;;;4975577;28;20042;-82
2023/12/07 07:15:55;;;;;;;0.20;0.20;;;;;;;;;;4973713;28;20043;-82
2023/12/07 07:18:23;;;;;;;0.20;0.10;;;;;;;;;;4973847;28;20049;-82
2023/12/07 07:20:49;;;;;;;0.30;0.30;;;;;;;;;;4980100;28;20446;-82
2023/12/07 07:23:15;;;;;;;0.20;0.10;;;;;;;;;;4977673;28;20100;-82
2023/12/07 07:25:42;;;;;;;0.20;0.10;;;;;;;;;;4971827;28;20043;-82
2023/12/07 07:28:08;;;;;;;0.20;0.10;;;;;;;;;;4987518;28;20045;-82
2023/12/07 07:30:34;;;;;;;0.20;0.10;;;;;;;;;;4989012;28;20062;-82
2023/12/07 07:33:01;;;;;;;0.30;0.20;;;;;;;;;;4988379;28;20237;-82
2023/12/07 07:35:27;;;;;;;0.20;0.10;;;;;;;;;;4988012;28;20047;-82
2023/12/07 07:37:53;;;;;;;0.28;0.28;;;;;;;;;;4975235;28;20042;-82
2023/12/07 07:40:19;;;;;;;0.20;0.10;;;;;;;;;;4984416;28;20049;-82
2023/12/07 07:42:46;;;;;;;0.20;0.00;;;;;;;;;;4982627;28;20472;-82
2023/12/07 07:45:12;;;;;;;0.20;0.10;;;;;;;;;;4968243;28;20043;-83
2023/12/07 07:47:38;;;;;;;0.20;0.10;;;;;;;;;;4971462;28;20070;-82
2023/12/07 07:50:05;;;;;;;0.20;0.20;;;;;;;;;;4986963;28;20499;-82
2023/12/07 07:52:35;;;;;;;0.20;0.10;;;;;;;;;;4966506;28;20039;-82
2023/12/07 07:55:02;;;;;;;0.20;0.10;;;;;;;;;;4979965;28;20127;-83
2023/12/07 07:57:28;;;;;;;0.20;0.13;;;;;;;;;;4969248;28;20122;-83
2023/12/07 07:59:55;;;;;;;0.20;0.20;;;;;;;;;;4971521;28;20034;-82
2023/12/07 08:02:21;;;;;;;0.20;0.10;;;;;;;;;;4971807;28;20102;-82
2023/12/07 08:04:47;;;;;;;0.20;0.10;;;;;;;;;;4973315;28;20044;-82
2023/12/07 08:07:14;;;;;;;0.20;0.08;;;;;;;;;;4963449;28;20458;-83
2023/12/07 08:09:40;;;;;;;0.20;0.10;;;;;;;;;;4964598;28;20030;-83
2023/12/07 08:12:08;;;;;;;0.30;0.20;;;;;;;;;;4981807;28;20069;-81
2023/12/07 08:14:35;;;;;;;0.20;0.10;;;;;;;;;;4971357;28;20038;-82
2023/12/07 08:17:01;;;;;;;0.20;0.10;;;;;;;;;;4972811;28;20049;-82
2023/12/07 08:19:27;;;;;;;0.65;0.40;;;;;;;;;;4968488;28;20062;-82
2023/12/07 08:21:54;;;;;;;0.20;0.10;;;;;;;;;;4988975;28;20146;-82
2023/12/07 08:24:20;;;;;;;0.20;0.17;;;;;;;;;;4973161;28;20507;-82
2023/12/07 08:26:46;;;;;;;0.20;0.10;;;;;;;;;;4992995;28;20054;-82
2023/12/07 08:29:13;;;;;;;0.20;0.10;;;;;;;;;;4986486;28;20085;-82
2023/12/07 08:31:40;;;;;;;0.20;0.10;;;;;;;;;;4988984;28;20043;-82
2023/12/07 08:34:06;;;;;;;0.20;0.10;;;;;;;;;;4973421;28;20074;-82
2023/12/07 08:36:32;;;;;;;0.20;0.10;;;;;;;;;;4969829;28;20043;-83
2023/12/07 08:38:58;;;;;;;0.32;0.32;;;;;;;;;;4971585;28;20133;-82
2023/12/07 08:41:24;;;;;;;0.20;0.20;;;;;;;;;;4974587;28;20046;-82
2023/12/07 08:43:51;;;;;;;0.20;0.00;;;;;;;;;;4975062;28;20097;-82
2023/12/07 08:46:17;;;;;;;0.32;0.32;;;;;;;;;;4976102;28;20038;-83
2023/12/07 08:48:43;;;;;;;0.20;0.10;;;;;;;;;;4968437;28;20050;-83
2023/12/07 08:51:09;;;;;;;0.20;0.10;;;;;;;;;;4969648;28;20391;-83
2023/12/07 08:53:38;;;;;;;0.20;0.10;;;;;;;;;;4984874;28;20042;-82
2023/12/07 08:56:04;;;;;;;0.20;0.10;;;;;;;;;;4971248;28;20634;-82
2023/12/07 08:58:30;;;;;;;0.20;0.10;;;;;;;;;;4976985;28;20453;-82
2023/12/07 09:00:56;;;;;;;0.20;0.10;;;;;;;;;;4975158;28;20422;-82
2023/12/07 09:03:27;;;;;;;0.20;0.10;;;;;;;;;;4982564;28;20509;-82
2023/12/07 09:05:53;;;;;;;0.55;0.55;;;;;;;;;;4972061;28;20046;-82
2023/12/07 09:08:19;;;;;;;0.20;0.10;;;;;;;;;;4972017;28;20052;-83
2023/12/07 09:10:45;;;;;;;0.20;0.10;;;;;;;;;;4989565;28;20088;-83
2023/12/07 09:13:11;;;;;;;0.75;0.50;;;;;;;;;;4986523;28;20092;-83
2023/12/07 09:15:37;;;;;;;0.20;0.10;;;;;;;;;;4965183;28;20041;-84
2023/12/07 09:18:04;;;;;;;0.20;0.10;;;;;;;;;;4970964;28;20039;-82
2023/12/07 09:20:30;;;;;;;0.20;0.10;;;;;;;;;;4985147;28;20048;-82
2023/12/07 09:22:57;;;;;;;0.20;0.10;;;;;;;;;;4984449;28;20101;-82
2023/12/07 09:25:23;;;;;;;0.20;0.20;;;;;;;;;;4968640;28;20049;-82
2023/12/07 09:27:51;;;;;;;0.20;0.10;;;;;;;;;;4969224;28;20042;-81
2023/12/07 09:30:17;;;;;;;0.20;0.10;;;;;;;;;;4977492;28;20042;-82
2023/12/07 09:32:43;;;;;;;0.20;0.10;;;;;;;;;;4970442;28;20069;-82
2023/12/07 09:35:19;;;;;;;0.20;0.10;;;;;;;;;;4971418;28;20184;-82
2023/12/07 09:37:45;;;;;;;0.20;0.10;;;;;;;;;;4965300;28;20045;-82
2023/12/07 09:40:16;;;;;;;0.20;0.10;;;;;;;;;;4979785;28;20050;-82
2023/12/07 09:42:43;;;;;;;0.50;0.50;;;;;;;;;;4980731;28;20048;-82
2023/12/07 09:45:09;;;;;;;0.90;0.50;;;;;;;;;;4984476;28;20057;-81
2023/12/07 09:47:38;;;;;;;0.20;0.03;;;;;;;;;;4985237;28;20038;-82
2023/12/07 09:50:11;;;;;;;0.20;0.10;;;;;;;;;;4982419;28;20049;-82
2023/12/07 09:52:38;;;;;;;0.20;0.10;;;;;;;;;;4972130;28;20529;-83
2023/12/07 09:55:04;;;;;;;0.35;0.28;;;;;;;;;;4974642;28;20396;-82
2023/12/07 09:57:31;;;;;;;0.20;0.10;;;;;;;;;;4972817;28;20337;-82
2023/12/07 09:59:57;;;;;;;0.20;0.10;;;;;;;;;;4970555;28;20552;-81
2023/12/07 10:02:23;;;;;;;0.20;0.10;;;;;;;;;;4970262;28;20043;-83
2023/12/07 10:04:50;;;;;;;0.20;0.00;;;;;;;;;;4993164;28;20088;-82
2023/12/07 10:07:16;;;;;;;0.20;0.10;;;;;;;;;;5002209;28;20042;-82
2023/12/07 10:09:42;;;;;;;0.20;0.10;;;;;;;;;;4966238;28;20050;-83
2023/12/07 10:12:08;;;;;;;0.20;0.10;;;;;;;;;;4989999;28;20117;-82
2023/12/07 10:14:34;;;;;;;0.43;0.20;;;;;;;;;;4973710;28;20039;-81
2023/12/07 10:17:01;;;;;;;0.20;0.10;;;;;;;;;;4969576;28;20049;-81
2023/12/07 10:19:27;;;;;;;0.20;0.10;;;;;;;;;;4967805;28;20039;-83
2023/12/07 10:21:54;;;;;;;0.20;0.10;;;;;;;;;;4970389;28;20526;-82
2023/12/07 10:24:20;;;;;;;0.20;0.10;;;;;;;;;;4977293;28;20165;-81
2023/12/07 10:26:47;;;;;;;0.20;0.10;;;;;;;;;;4987549;28;20038;-81
2023/12/07 10:29:13;;;;;;;0.20;0.10;;;;;;;;;;4968452;28;20038;-82
2023/12/07 10:31:39;;;;;;;0.20;0.00;;;;;;;;;;4971640;28;20613;-82
2023/12/07 10:34:06;;;;;;;0.20;0.10;;;;;;;;;;4989081;28;20038;-82
2023/12/07 10:36:32;;;;;;;0.20;0.10;;;;;;;;;;4978322;28;20069;-82
2023/12/07 10:38:58;;;;;;;0.20;0.10;;;;;;;;;;4962054;28;20057;-84
2023/12/07 10:41:25;;;;;;;0.20;0.10;;;;;;;;;;4965882;28;20042;-83
2023/12/07 10:43:57;;;;;;;0.20;0.10;;;;;;;;;;4969817;28;20050;-82
2023/12/07 10:46:23;;;;;;;0.20;0.10;;;;;;;;;;4978344;28;20105;-83
2023/12/07 10:48:52;;;;;;;0.20;0.10;;;;;;;;;;4972917;28;20045;-82
2023/12/07 10:51:23;;;;;;;0.20;0.10;;;;;;;;;;4983565;28;20038;-83
2023/12/07 10:53:51;;;;;;;0.20;0.10;;;;;;;;;;4981709;28;20043;-83
2023/12/07 10:56:23;;;;;;;0.20;0.00;;;;;;;;;;4987509;28;20050;-83
2023/12/07 10:58:49;;;;;;;0.20;0.10;;;;;;;;;;4988829;28;20469;-83
2023/12/07 11:01:17;;;;;;;0.28;0.20;;;;;;;;;;4967479;28;20073;-83
2023/12/07 11:03:44;;;;;;;0.20;0.10;;;;;;;;;;4989190;28;20092;-83
2023/12/07 11:06:10;;;;;;;0.20;0.20;;;;;;;;;;4973230;28;20103;-82
2023/12/07 11:08:42;;;;;;;0.20;0.00;;;;;;;;;;4975999;28;20049;-82
2023/12/07 11:11:08;;;;;;;;;;;;;;;;;;4970107;28;20098;-83
2023/12/07 11:13:36;;;;;;;0.20;0.05;;;;;;;;;;4969645;28;19921;-81
2023/12/07 11:16:03;;;;;;;0.20;0.10;;;;;;;;;;4972127;28;20108;-83
2023/12/07 11:18:30;;;;;;;0.20;0.10;;;;;;;;;;4967918;28;20113;-82
2023/12/07 11:20:56;;;;;;;0.30;0.22;;;;;;;;;;4973004;28;20069;-82
2023/12/07 11:23:23;;;;;;;0.20;0.10;;;;;;;;;;4984193;28;20585;-82
2023/12/07 11:25:53;;;;;;;0.20;0.10;;;;;;;;;;4989225;28;20049;-82
2023/12/07 11:28:19;;;;;;;0.20;0.10;;;;;;;;;;4986256;28;20038;-82
2023/12/07 11:30:46;;;;;;;0.20;0.10;;;;;;;;;;4977819;28;20026;-82
2023/12/07 11:33:12;;;;;;;0.20;0.10;;;;;;;;;;4978707;28;20046;-82
2023/12/07 11:36:01;;;;;;;0.20;0.10;;;;;;;;;;4988334;28;20030;-83
2023/12/07 11:38:27;;;;;;;0.20;0.10;;;;;;;;;;4993462;28;20053;-82
2023/12/07 11:40:55;;;;;;;0.20;0.00;;;;;;;;;;4978174;28;20794;-83
2023/12/07 11:43:35;;;;;;;0.20;0.00;;;;;;;;;;4983274;28;20118;-82
2023/12/07 11:46:01;;;;;;;0.20;0.20;;;;;;;;;;4985037;28;20050;-82
2023/12/07 11:48:27;;;;;;;0.20;0.10;;;;;;;;;;4958477;28;20042;-83
2023/12/07 11:50:58;;;;;;;0.30;0.30;;;;;;;;;;4967515;28;20030;-81
2023/12/07 11:53:24;;;;;;;0.43;0.38;;;;;;;;;;4984079;28;20469;-82
2023/12/07 11:55:50;;;;;;;0.20;0.10;;;;;;;;;;4990196;28;20045;-81
2023/12/07 11:58:16;;;;;;;0.20;0.20;;;;;;;;;;4988951;28;20069;-84
2023/12/07 12:00:44;;;;;;;0.28;0.28;;;;;;;;;;4985926;28;20074;-81
2023/12/07 12:03:11;;;;;;;0.20;0.10;;;;;;;;;;4980264;28;20469;-83
2023/12/07 12:05:38;;;;;;;0.20;0.10;;;;;;;;;;4972216;28;20519;-83
2023/12/07 12:08:05;;;;;;;0.20;0.10;;;;;;;;;;4979566;28;20073;-82
2023/12/07 12:10:31;;;;;;;0.20;0.10;;;;;;;;;;4988337;28;20515;-82
2023/12/07 12:12:57;;;;;;;0.20;0.10;;;;;;;;;;4984467;28;20077;-83
2023/12/07 12:15:23;;;;;;;0.20;0.10;;;;;;;;;;4970354;28;20058;-83
2023/12/07 12:17:49;;;;;;;0.20;0.10;;;;;;;;;;4990644;28;20038;-82
2023/12/07 12:20:17;;;;;;;0.20;0.08;;;;;;;;;;4976629;28;20038;-82
2023/12/07 12:22:43;;;;;;;0.20;0.10;;;;;;;;;;4965413;28;20053;-83
2023/12/07 12:25:10;;;;;;;0.20;0.10;;;;;;;;;;4984254;28;20089;-82
2023/12/07 12:27:36;;;;;;;0.20;0.10;;;;;;;;;;4981303;28;20531;-82
2023/12/07 12:30:03;;;;;;;0.20;0.00;;;;;;;;;;4967884;28;20130;-83
2023/12/07 12:32:49;;;;;;;0.20;0.10;;;;;;;;;;4972069;28;20046;-85
2023/12/07 12:35:22;;;;;;;0.20;0.00;;;;;;;;;;4984073;28;20357;-82
2023/12/07 12:37:49;;;;;;;0.20;0.10;;;;;;;;;;4983680;28;20039;-83
2023/12/07 12:40:21;;;;;;;0.20;0.10;;;;;;;;;;4969040;28;20459;-83
2023/12/07 12:42:48;;;;;;;0.20;0.10;;;;;;;;;;4964321;28;20038;-84
2023/12/07 12:45:18;;;;;;;0.20;0.10;;;;;;;;;;4966870;28;20038;-84
2023/12/07 12:47:44;;;;;;;0.35;0.35;;;;;;;;;;4974637;28;20494;-85
2023/12/07 12:50:30;;;;;;;0.20;0.10;;;;;;;;;;4966129;28;20038;-85
2023/12/07 12:52:58;;;;;;;0.20;0.20;;;;;;;;;;4960149;28;20046;-84
2023/12/07 12:55:26;;;;;;;0.20;0.15;;;;;;;;;;4963439;28;20069;-84
2023/12/07 12:57:52;;;;;;;1.05;0.68;;;;;;;;;;4983130;28;20042;-83
2023/12/07 13:00:19;;;;;;;0.28;0.28;;;;;;;;;;4984494;23;20096;-86
2023/12/07 13:02:45;;;;;;;0.20;0.10;;;;;;;;;;4949725;28;20034;-84
2023/12/07 13:05:12;;;;;;;2.47;0.55;;;;;;;;;;4971293;28;20758;-86
2023/12/07 13:07:38;;;;;;;0.20;0.10;;;;;;;;;;4954121;28;20042;-86
2023/12/07 13:10:04;;;;;;;0.20;0.10;;;;;;;;;;4953966;28;20515;-86
2023/12/07 13:12:34;;;;;;;0.20;0.10;;;;;;;;;;4998498;28;20507;-86
2023/12/07 13:15:00;;;;;;;0.20;0.10;;;;;;;;;;4983543;28;20054;-86
2023/12/07 13:17:26;;;;;;;0.63;0.50;;;;;;;;;;4979004;28;20430;-86
2023/12/07 13:19:52;;;;;;;0.20;0.10;;;;;;;;;;4982281;28;20089;-86
2023/12/07 13:22:18;;;;;;;0.20;0.10;;;;;;;;;;4955258;28;20046;-85
2023/12/07 13:24:46;;;;;;;0.20;0.05;;;;;;;;;;5003632;28;20045;-86
2023/12/07 13:27:12;;;;;;;0.20;0.10;;;;;;;;;;5003207;28;20049;-87
2023/12/07 13:29:38;;;;;;;0.20;0.10;;;;;;;;;;4980534;28;20042;-85
2023/12/07 13:32:04;;;;;;;0.85;0.65;;;;;;;;;;4987061;28;20422;-86
2023/12/07 13:34:31;;;;;;;0.20;0.10;;;;;;;;;;4984915;28;20302;-86
2023/12/07 13:36:57;;;;;;;0.20;0.10;;;;;;;;;;4966143;28;20050;-86
2023/12/07 13:39:23;;;;;;;0.20;0.10;;;;;;;;;;4956603;28;20589;-87
2023/12/07 13:41:49;;;;;;;0.20;0.10;;;;;;;;;;4983762;28;20491;-87
2023/12/07 13:44:20;;;;;;;0.20;0.10;;;;;;;;;;4986581;28;20053;-85
2023/12/07 13:46:46;;;;;;;0.20;0.10;;;;;;;;;;4997945;28;20129;-83
2023/12/07 13:49:14;;;;;;;0.20;0.00;;;;;;;;;;4988725;28;20057;-85
2023/12/07 13:51:41;;;;;;;0.20;0.10;;;;;;;;;;4984935;28;20117;-86
2023/12/07 13:54:07;;;;;;;0.20;0.10;;;;;;;;;;5000415;28;20095;-86
2023/12/07 13:56:35;;;;;;;0.20;0.10;;;;;;;;;;4996810;28;20031;-84
2023/12/07 13:59:02;;;;;;;0.20;0.10;;;;;;;;;;4983590;28;20038;-86
2023/12/07 14:01:28;;;;;;;0.35;0.17;;;;;;;;;;4969872;28;20043;-85
2023/12/07 14:03:55;;;;;;;0.20;0.10;;;;;;;;;;4998677;28;20503;-86
2023/12/07 14:06:25;;;;;;;0.20;0.10;;;;;;;;;;4962684;28;20128;-85
2023/12/07 14:08:51;;;;;;;0.20;0.10;;;;;;;;;;4965108;28;20046;-86
2023/12/07 14:11:18;;;;;;;0.20;0.00;;;;;;;;;;4954313;28;20034;-87
2023/12/07 14:13:46;;;;;;;0.20;0.15;;;;;;;;;;4984889;28;20107;-85
2023/12/07 14:16:13;;;;;;;0.20;0.10;;;;;;;;;;4988817;28;20038;-85
2023/12/07 14:18:39;;;;;;;0.20;0.10;;;;;;;;;;4956161;28;20376;-85
2023/12/07 14:21:05;;;;;;;0.20;0.10;;;;;;;;;;4970997;28;20506;-86
2023/12/07 14:23:31;;;;;;;0.20;0.20;;;;;;;;;;4958129;28;20434;-84
2023/12/07 14:26:01;;;;;;;0.20;0.00;;;;;;;;;;4960837;28;20178;-84
2023/12/07 14:28:33;;;;;;;0.20;0.10;;;;;;;;;;4981018;28;20046;-87
2023/12/07 14:30:59;;;;;;;0.20;0.05;;;;;;;;;;4966286;28;20039;-86
2023/12/07 14:33:25;;;;;;;0.20;0.10;;;;;;;;;;4983028;28;20046;-85
2023/12/07 14:35:51;;;;;;;0.20;0.15;;;;;;;;;;4976564;28;20042;-86
2023/12/07 14:38:17;;;;;;;0.20;0.10;;;;;;;;;;4962393;28;20046;-85
2023/12/07 14:40:44;;;;;;;0.47;0.22;;;;;;;;;;4980147;28;20038;-86